sensor_id;sensor_type;location;lat;lon;timestamp;P1;durP1;ratioP1;P2;durP2;ratioP2
57635;SDS011;43465;50.728;4.160;2022-11-20T00:01:46;96.28;;;44.03;;
57635;SDS011;43465;50.728;4.160;2022-11-20T00:04:12;87.40;;;42.90;;
57635;SDS011;43465;50.728;4.160;2022-11-20T00:06:37;99.40;;;44.60;;
57635;SDS011;43465;50.728;4.160;2022-11-20T00:09:03;89.72;;;42.05;;
57635;SDS011;43465;50.728;4.160;2022-11-20T00:11:30;99.47;;;43.05;;
57635;SDS011;43465;50.728;4.160;2022-11-20T00:13:57;88.10;;;43.55;;
57635;SDS011;43465;50.728;4.160;2022-11-20T00:16:25;87.18;;;41.92;;
57635;SDS011;43465;50.728;4.160;2022-11-20T00:18:52;78.97;;;40.35;;
57635;SDS011;43465;50.728;4.160;2022-11-20T00:21:20;85.53;;;42.10;;
57635;SDS011;43465;50.728;4.160;2022-11-20T00:23:46;90.97;;;41.42;;
57635;SDS011;43465;50.728;4.160;2022-11-20T00:26:14;96.93;;;43.38;;
57635;SDS011;43465;50.728;4.160;2022-11-20T00:28:41;103.53;;;42.97;;
57635;SDS011;43465;50.728;4.160;2022-11-20T00:31:10;96.85;;;42.97;;
57635;SDS011;43465;50.728;4.160;2022-11-20T00:33:38;89.40;;;42.70;;
57635;SDS011;43465;50.728;4.160;2022-11-20T00:36:08;92.85;;;41.95;;
57635;SDS011;43465;50.728;4.160;2022-11-20T00:38:35;85.68;;;41.35;;
57635;SDS011;43465;50.728;4.160;2022-11-20T00:41:02;88.10;;;41.42;;
57635;SDS011;43465;50.728;4.160;2022-11-20T00:43:29;91.60;;;43.13;;
57635;SDS011;43465;50.728;4.160;2022-11-20T00:46:03;82.40;;;39.92;;
57635;SDS011;43465;50.728;4.160;2022-11-20T00:48:30;93.32;;;42.88;;
57635;SDS011;43465;50.728;4.160;2022-11-20T00:50:56;91.60;;;44.47;;
57635;SDS011;43465;50.728;4.160;2022-11-20T00:53:22;86.68;;;42.70;;
57635;SDS011;43465;50.728;4.160;2022-11-20T00:55:52;99.07;;;41.92;;
57635;SDS011;43465;50.728;4.160;2022-11-20T00:58:19;88.88;;;42.83;;
57635;SDS011;43465;50.728;4.160;2022-11-20T01:00:44;94.20;;;41.88;;
57635;SDS011;43465;50.728;4.160;2022-11-20T01:03:10;84.95;;;41.13;;
57635;SDS011;43465;50.728;4.160;2022-11-20T01:05:35;92.20;;;41.55;;
57635;SDS011;43465;50.728;4.160;2022-11-20T01:08:01;82.05;;;39.90;;
57635;SDS011;43465;50.728;4.160;2022-11-20T01:10:26;94.80;;;41.78;;
57635;SDS011;43465;50.728;4.160;2022-11-20T01:12:52;85.88;;;40.33;;
57635;SDS011;43465;50.728;4.160;2022-11-20T01:15:38;88.72;;;40.53;;
57635;SDS011;43465;50.728;4.160;2022-11-20T01:18:03;86.00;;;41.58;;
57635;SDS011;43465;50.728;4.160;2022-11-20T01:20:30;100.63;;;42.38;;
57635;SDS011;43465;50.728;4.160;2022-11-20T01:22:59;105.32;;;43.10;;
57635;SDS011;43465;50.728;4.160;2022-11-20T01:25:24;91.25;;;42.03;;
57635;SDS011;43465;50.728;4.160;2022-11-20T01:27:50;94.43;;;41.63;;
57635;SDS011;43465;50.728;4.160;2022-11-20T01:30:16;93.30;;;40.92;;
57635;SDS011;43465;50.728;4.160;2022-11-20T01:32:41;90.32;;;41.42;;
57635;SDS011;43465;50.728;4.160;2022-11-20T01:35:07;87.32;;;40.17;;
57635;SDS011;43465;50.728;4.160;2022-11-20T01:37:34;96.07;;;40.53;;
57635;SDS011;43465;50.728;4.160;2022-11-20T01:40:00;80.68;;;38.08;;
57635;SDS011;43465;50.728;4.160;2022-11-20T01:42:26;84.18;;;37.63;;
57635;SDS011;43465;50.728;4.160;2022-11-20T01:48:13;86.78;;;38.05;;
57635;SDS011;43465;50.728;4.160;2022-11-20T01:50:39;78.88;;;34.65;;
57635;SDS011;43465;50.728;4.160;2022-11-20T01:53:10;78.13;;;36.35;;
57635;SDS011;43465;50.728;4.160;2022-11-20T01:55:41;82.43;;;36.35;;
57635;SDS011;43465;50.728;4.160;2022-11-20T01:58:10;74.03;;;35.38;;
57635;SDS011;43465;50.728;4.160;2022-11-20T02:00:37;75.53;;;35.17;;
57635;SDS011;43465;50.728;4.160;2022-11-20T02:03:04;73.45;;;35.00;;
57635;SDS011;43465;50.728;4.160;2022-11-20T02:08:27;67.80;;;33.03;;
57635;SDS011;43465;50.728;4.160;2022-11-20T02:10:53;70.47;;;33.90;;
57635;SDS011;43465;50.728;4.160;2022-11-20T02:13:19;68.75;;;33.58;;
57635;SDS011;43465;50.728;4.160;2022-11-20T02:16:03;72.90;;;32.67;;
57635;SDS011;43465;50.728;4.160;2022-11-20T02:18:30;62.08;;;31.17;;
57635;SDS011;43465;50.728;4.160;2022-11-20T02:20:59;64.95;;;32.13;;
57635;SDS011;43465;50.728;4.160;2022-11-20T02:23:40;56.40;;;29.20;;
57635;SDS011;43465;50.728;4.160;2022-11-20T02:26:17;58.65;;;30.17;;
57635;SDS011;43465;50.728;4.160;2022-11-20T02:28:45;56.42;;;29.27;;
57635;SDS011;43465;50.728;4.160;2022-11-20T02:31:11;58.78;;;30.77;;
57635;SDS011;43465;50.728;4.160;2022-11-20T02:33:37;53.90;;;28.20;;
57635;SDS011;43465;50.728;4.160;2022-11-20T02:36:03;59.30;;;29.08;;
57635;SDS011;43465;50.728;4.160;2022-11-20T02:38:29;58.58;;;30.45;;
57635;SDS011;43465;50.728;4.160;2022-11-20T02:40:54;54.78;;;30.23;;
57635;SDS011;43465;50.728;4.160;2022-11-20T02:43:20;58.20;;;29.67;;
57635;SDS011;43465;50.728;4.160;2022-11-20T02:45:46;54.13;;;29.80;;
57635;SDS011;43465;50.728;4.160;2022-11-20T02:48:11;57.05;;;30.30;;
57635;SDS011;43465;50.728;4.160;2022-11-20T02:50:37;55.40;;;29.85;;
57635;SDS011;43465;50.728;4.160;2022-11-20T02:53:04;53.92;;;28.75;;
57635;SDS011;43465;50.728;4.160;2022-11-20T02:55:30;53.83;;;29.10;;
57635;SDS011;43465;50.728;4.160;2022-11-20T02:57:56;53.22;;;28.55;;
57635;SDS011;43465;50.728;4.160;2022-11-20T03:00:21;55.38;;;29.42;;
57635;SDS011;43465;50.728;4.160;2022-11-20T03:02:47;52.50;;;29.73;;
57635;SDS011;43465;50.728;4.160;2022-11-20T03:05:13;50.45;;;28.25;;
57635;SDS011;43465;50.728;4.160;2022-11-20T03:07:38;55.42;;;28.35;;
57635;SDS011;43465;50.728;4.160;2022-11-20T03:10:04;57.75;;;29.58;;
57635;SDS011;43465;50.728;4.160;2022-11-20T03:12:30;55.33;;;30.13;;
57635;SDS011;43465;50.728;4.160;2022-11-20T03:14:56;56.45;;;29.27;;
57635;SDS011;43465;50.728;4.160;2022-11-20T03:17:21;59.75;;;30.90;;
57635;SDS011;43465;50.728;4.160;2022-11-20T03:19:47;58.75;;;29.65;;
57635;SDS011;43465;50.728;4.160;2022-11-20T03:22:12;58.08;;;28.80;;
57635;SDS011;43465;50.728;4.160;2022-11-20T03:24:38;67.43;;;32.15;;
57635;SDS011;43465;50.728;4.160;2022-11-20T03:27:04;63.28;;;30.63;;
57635;SDS011;43465;50.728;4.160;2022-11-20T03:29:29;67.30;;;31.38;;
57635;SDS011;43465;50.728;4.160;2022-11-20T03:31:55;60.60;;;29.25;;
57635;SDS011;43465;50.728;4.160;2022-11-20T03:34:20;67.72;;;31.90;;
57635;SDS011;43465;50.728;4.160;2022-11-20T03:36:46;68.43;;;32.00;;
57635;SDS011;43465;50.728;4.160;2022-11-20T03:39:11;65.57;;;31.50;;
57635;SDS011;43465;50.728;4.160;2022-11-20T03:41:39;64.10;;;32.03;;
57635;SDS011;43465;50.728;4.160;2022-11-20T03:44:07;74.40;;;33.28;;
57635;SDS011;43465;50.728;4.160;2022-11-20T03:46:35;80.95;;;36.30;;
57635;SDS011;43465;50.728;4.160;2022-11-20T03:49:00;86.95;;;35.60;;
57635;SDS011;43465;50.728;4.160;2022-11-20T03:51:27;95.45;;;37.75;;
57635;SDS011;43465;50.728;4.160;2022-11-20T03:53:55;98.45;;;37.08;;
57635;SDS011;43465;50.728;4.160;2022-11-20T03:56:23;92.25;;;37.28;;
57635;SDS011;43465;50.728;4.160;2022-11-20T03:58:50;98.68;;;35.35;;
57635;SDS011;43465;50.728;4.160;2022-11-20T04:01:17;118.05;;;39.63;;
57635;SDS011;43465;50.728;4.160;2022-11-20T04:03:45;113.47;;;38.50;;
57635;SDS011;43465;50.728;4.160;2022-11-20T04:06:18;125.28;;;39.63;;
57635;SDS011;43465;50.728;4.160;2022-11-20T04:08:46;130.00;;;39.80;;
57635;SDS011;43465;50.728;4.160;2022-11-20T04:11:18;102.85;;;38.65;;
57635;SDS011;43465;50.728;4.160;2022-11-20T04:13:49;115.85;;;38.53;;
57635;SDS011;43465;50.728;4.160;2022-11-20T04:16:20;110.95;;;39.40;;
57635;SDS011;43465;50.728;4.160;2022-11-20T04:18:46;119.28;;;40.60;;
57635;SDS011;43465;50.728;4.160;2022-11-20T04:21:16;122.57;;;39.13;;
57635;SDS011;43465;50.728;4.160;2022-11-20T04:23:41;111.20;;;39.40;;
57635;SDS011;43465;50.728;4.160;2022-11-20T04:26:08;132.45;;;41.50;;
57635;SDS011;43465;50.728;4.160;2022-11-20T04:28:37;101.82;;;37.03;;
57635;SDS011;43465;50.728;4.160;2022-11-20T04:31:04;119.78;;;39.75;;
57635;SDS011;43465;50.728;4.160;2022-11-20T04:33:34;112.60;;;39.67;;
57635;SDS011;43465;50.728;4.160;2022-11-20T04:36:09;123.68;;;39.58;;
57635;SDS011;43465;50.728;4.160;2022-11-20T04:38:36;107.93;;;39.10;;
57635;SDS011;43465;50.728;4.160;2022-11-20T04:41:03;116.57;;;40.42;;
57635;SDS011;43465;50.728;4.160;2022-11-20T04:43:30;120.82;;;40.47;;
57635;SDS011;43465;50.728;4.160;2022-11-20T04:45:57;101.45;;;39.50;;
57635;SDS011;43465;50.728;4.160;2022-11-20T04:48:23;102.00;;;38.85;;
57635;SDS011;43465;50.728;4.160;2022-11-20T04:50:50;102.95;;;38.25;;
57635;SDS011;43465;50.728;4.160;2022-11-20T04:53:17;90.10;;;35.80;;
57635;SDS011;43465;50.728;4.160;2022-11-20T04:55:43;90.80;;;36.25;;
57635;SDS011;43465;50.728;4.160;2022-11-20T04:58:09;90.85;;;36.58;;
57635;SDS011;43465;50.728;4.160;2022-11-20T05:00:34;91.55;;;35.83;;
57635;SDS011;43465;50.728;4.160;2022-11-20T05:03:00;92.85;;;36.30;;
57635;SDS011;43465;50.728;4.160;2022-11-20T05:05:26;89.68;;;36.60;;
57635;SDS011;43465;50.728;4.160;2022-11-20T05:07:51;88.43;;;35.42;;
57635;SDS011;43465;50.728;4.160;2022-11-20T05:10:17;85.70;;;35.58;;
57635;SDS011;43465;50.728;4.160;2022-11-20T05:12:42;84.13;;;36.33;;
57635;SDS011;43465;50.728;4.160;2022-11-20T05:15:08;89.20;;;36.05;;
57635;SDS011;43465;50.728;4.160;2022-11-20T05:17:34;87.10;;;35.50;;
57635;SDS011;43465;50.728;4.160;2022-11-20T05:20:00;87.25;;;36.80;;
57635;SDS011;43465;50.728;4.160;2022-11-20T05:22:25;92.15;;;37.05;;
57635;SDS011;43465;50.728;4.160;2022-11-20T05:24:51;85.38;;;37.10;;
57635;SDS011;43465;50.728;4.160;2022-11-20T05:27:17;84.15;;;34.40;;
57635;SDS011;43465;50.728;4.160;2022-11-20T05:29:42;85.35;;;35.35;;
57635;SDS011;43465;50.728;4.160;2022-11-20T05:32:08;91.65;;;36.08;;
57635;SDS011;43465;50.728;4.160;2022-11-20T05:34:34;94.32;;;36.53;;
57635;SDS011;43465;50.728;4.160;2022-11-20T05:37:01;82.43;;;34.60;;
57635;SDS011;43465;50.728;4.160;2022-11-20T05:39:27;82.35;;;34.25;;
57635;SDS011;43465;50.728;4.160;2022-11-20T05:41:53;81.95;;;33.33;;
57635;SDS011;43465;50.728;4.160;2022-11-20T05:44:38;84.30;;;33.97;;
57635;SDS011;43465;50.728;4.160;2022-11-20T05:47:04;75.07;;;34.95;;
57635;SDS011;43465;50.728;4.160;2022-11-20T05:49:30;78.30;;;33.25;;
57635;SDS011;43465;50.728;4.160;2022-11-20T05:51:56;80.15;;;34.35;;
57635;SDS011;43465;50.728;4.160;2022-11-20T05:54:22;74.55;;;32.28;;
57635;SDS011;43465;50.728;4.160;2022-11-20T05:56:47;78.03;;;33.38;;
57635;SDS011;43465;50.728;4.160;2022-11-20T05:59:13;68.80;;;30.17;;
57635;SDS011;43465;50.728;4.160;2022-11-20T06:01:38;72.05;;;31.90;;
57635;SDS011;43465;50.728;4.160;2022-11-20T06:04:04;66.13;;;30.27;;
57635;SDS011;43465;50.728;4.160;2022-11-20T06:06:29;63.45;;;29.83;;
57635;SDS011;43465;50.728;4.160;2022-11-20T06:08:55;62.22;;;29.63;;
57635;SDS011;43465;50.728;4.160;2022-11-20T06:11:21;63.38;;;30.08;;
57635;SDS011;43465;50.728;4.160;2022-11-20T06:13:47;64.45;;;29.63;;
57635;SDS011;43465;50.728;4.160;2022-11-20T06:16:13;59.92;;;29.10;;
57635;SDS011;43465;50.728;4.160;2022-11-20T06:18:40;63.03;;;29.95;;
57635;SDS011;43465;50.728;4.160;2022-11-20T06:21:07;67.88;;;31.65;;
57635;SDS011;43465;50.728;4.160;2022-11-20T06:23:35;64.90;;;29.83;;
57635;SDS011;43465;50.728;4.160;2022-11-20T06:26:05;64.00;;;29.95;;
57635;SDS011;43465;50.728;4.160;2022-11-20T06:28:31;60.08;;;28.45;;
57635;SDS011;43465;50.728;4.160;2022-11-20T06:30:57;65.10;;;29.38;;
57635;SDS011;43465;50.728;4.160;2022-11-20T06:33:24;60.72;;;29.67;;
57635;SDS011;43465;50.728;4.160;2022-11-20T06:35:50;57.65;;;28.20;;
57635;SDS011;43465;50.728;4.160;2022-11-20T06:38:15;59.42;;;28.73;;
57635;SDS011;43465;50.728;4.160;2022-11-20T06:40:41;59.65;;;29.20;;
57635;SDS011;43465;50.728;4.160;2022-11-20T06:43:10;60.35;;;30.48;;
57635;SDS011;43465;50.728;4.160;2022-11-20T06:45:36;61.95;;;29.05;;
57635;SDS011;43465;50.728;4.160;2022-11-20T06:48:02;60.95;;;28.77;;
57635;SDS011;43465;50.728;4.160;2022-11-20T06:50:28;58.85;;;29.83;;
57635;SDS011;43465;50.728;4.160;2022-11-20T06:52:53;61.88;;;29.40;;
57635;SDS011;43465;50.728;4.160;2022-11-20T06:55:19;59.63;;;28.65;;
57635;SDS011;43465;50.728;4.160;2022-11-20T06:57:45;58.38;;;28.45;;
57635;SDS011;43465;50.728;4.160;2022-11-20T07:00:10;57.35;;;27.98;;
57635;SDS011;43465;50.728;4.160;2022-11-20T07:02:37;56.80;;;28.38;;
57635;SDS011;43465;50.728;4.160;2022-11-20T07:05:02;55.92;;;27.17;;
57635;SDS011;43465;50.728;4.160;2022-11-20T07:07:28;49.70;;;26.30;;
57635;SDS011;43465;50.728;4.160;2022-11-20T07:09:54;55.22;;;26.55;;
57635;SDS011;43465;50.728;4.160;2022-11-20T07:12:20;56.33;;;28.23;;
57635;SDS011;43465;50.728;4.160;2022-11-20T07:14:45;56.95;;;27.08;;
57635;SDS011;43465;50.728;4.160;2022-11-20T07:17:11;62.22;;;28.25;;
57635;SDS011;43465;50.728;4.160;2022-11-20T07:19:37;61.28;;;29.15;;
57635;SDS011;43465;50.728;4.160;2022-11-20T07:22:03;62.47;;;28.55;;
57635;SDS011;43465;50.728;4.160;2022-11-20T07:24:29;63.20;;;28.38;;
57635;SDS011;43465;50.728;4.160;2022-11-20T07:26:55;65.25;;;29.05;;
57635;SDS011;43465;50.728;4.160;2022-11-20T07:29:20;71.97;;;29.95;;
57635;SDS011;43465;50.728;4.160;2022-11-20T07:31:46;72.32;;;29.52;;
57635;SDS011;43465;50.728;4.160;2022-11-20T07:34:12;60.60;;;28.00;;
57635;SDS011;43465;50.728;4.160;2022-11-20T07:36:37;69.57;;;28.95;;
57635;SDS011;43465;50.728;4.160;2022-11-20T07:39:03;67.07;;;28.40;;
57635;SDS011;43465;50.728;4.160;2022-11-20T07:41:29;75.85;;;28.85;;
57635;SDS011;43465;50.728;4.160;2022-11-20T07:43:55;63.00;;;28.15;;
57635;SDS011;43465;50.728;4.160;2022-11-20T07:46:20;74.07;;;28.00;;
57635;SDS011;43465;50.728;4.160;2022-11-20T07:48:46;68.00;;;29.92;;
57635;SDS011;43465;50.728;4.160;2022-11-20T07:51:11;74.35;;;29.15;;
57635;SDS011;43465;50.728;4.160;2022-11-20T07:53:38;68.75;;;29.35;;
57635;SDS011;43465;50.728;4.160;2022-11-20T07:56:04;76.65;;;29.15;;
57635;SDS011;43465;50.728;4.160;2022-11-20T07:58:30;72.72;;;28.45;;
57635;SDS011;43465;50.728;4.160;2022-11-20T08:00:57;77.57;;;30.15;;
57635;SDS011;43465;50.728;4.160;2022-11-20T08:03:27;81.68;;;28.83;;
57635;SDS011;43465;50.728;4.160;2022-11-20T08:05:53;82.45;;;31.63;;
57635;SDS011;43465;50.728;4.160;2022-11-20T08:08:18;79.82;;;30.63;;
57635;SDS011;43465;50.728;4.160;2022-11-20T08:10:44;84.38;;;31.95;;
57635;SDS011;43465;50.728;4.160;2022-11-20T08:13:10;77.97;;;30.65;;
57635;SDS011;43465;50.728;4.160;2022-11-20T08:15:54;80.97;;;31.95;;
57635;SDS011;43465;50.728;4.160;2022-11-20T08:18:20;81.35;;;31.00;;
57635;SDS011;43465;50.728;4.160;2022-11-20T08:20:46;76.05;;;30.00;;
57635;SDS011;43465;50.728;4.160;2022-11-20T08:23:11;73.78;;;29.58;;
57635;SDS011;43465;50.728;4.160;2022-11-20T08:25:37;71.78;;;29.98;;
57635;SDS011;43465;50.728;4.160;2022-11-20T08:28:04;72.32;;;29.90;;
57635;SDS011;43465;50.728;4.160;2022-11-20T08:30:31;67.15;;;28.42;;
57635;SDS011;43465;50.728;4.160;2022-11-20T08:33:05;61.83;;;27.58;;
57635;SDS011;43465;50.728;4.160;2022-11-20T08:35:36;68.13;;;28.58;;
57635;SDS011;43465;50.728;4.160;2022-11-20T08:38:03;65.38;;;27.50;;
57635;SDS011;43465;50.728;4.160;2022-11-20T08:40:29;64.00;;;26.25;;
57635;SDS011;43465;50.728;4.160;2022-11-20T08:42:55;65.55;;;26.90;;
57635;SDS011;43465;50.728;4.160;2022-11-20T08:45:20;56.22;;;25.67;;
57635;SDS011;43465;50.728;4.160;2022-11-20T08:47:46;55.20;;;25.88;;
57635;SDS011;43465;50.728;4.160;2022-11-20T08:50:12;60.25;;;26.17;;
57635;SDS011;43465;50.728;4.160;2022-11-20T08:52:40;62.22;;;26.08;;
57635;SDS011;43465;50.728;4.160;2022-11-20T08:55:06;52.63;;;25.73;;
57635;SDS011;43465;50.728;4.160;2022-11-20T08:57:36;50.50;;;25.67;;
57635;SDS011;43465;50.728;4.160;2022-11-20T09:00:03;47.17;;;25.85;;
57635;SDS011;43465;50.728;4.160;2022-11-20T09:02:31;51.08;;;24.02;;
57635;SDS011;43465;50.728;4.160;2022-11-20T09:04:57;44.53;;;22.17;;
57635;SDS011;43465;50.728;4.160;2022-11-20T09:07:23;46.15;;;22.83;;
57635;SDS011;43465;50.728;4.160;2022-11-20T09:09:48;40.88;;;21.73;;
57635;SDS011;43465;50.728;4.160;2022-11-20T09:12:14;43.85;;;20.63;;
57635;SDS011;43465;50.728;4.160;2022-11-20T09:14:40;37.88;;;18.48;;
57635;SDS011;43465;50.728;4.160;2022-11-20T09:17:05;38.78;;;19.10;;
57635;SDS011;43465;50.728;4.160;2022-11-20T09:19:32;28.55;;;17.25;;
57635;SDS011;43465;50.728;4.160;2022-11-20T09:21:58;32.55;;;15.55;;
57635;SDS011;43465;50.728;4.160;2022-11-20T09:24:25;22.67;;;13.85;;
57635;SDS011;43465;50.728;4.160;2022-11-20T09:26:51;21.13;;;12.52;;
57635;SDS011;43465;50.728;4.160;2022-11-20T09:29:16;22.15;;;12.15;;
57635;SDS011;43465;50.728;4.160;2022-11-20T09:31:42;21.88;;;12.10;;
57635;SDS011;43465;50.728;4.160;2022-11-20T09:34:08;25.30;;;12.55;;
57635;SDS011;43465;50.728;4.160;2022-11-20T09:36:34;20.52;;;11.77;;
57635;SDS011;43465;50.728;4.160;2022-11-20T09:39:00;26.83;;;11.80;;
57635;SDS011;43465;50.728;4.160;2022-11-20T09:47:01;19.95;;;10.65;;
57635;SDS011;43465;50.728;4.160;2022-11-20T09:52:34;24.10;;;9.30;;
57635;SDS011;43465;50.728;4.160;2022-11-20T09:55:19;16.83;;;9.55;;
57635;SDS011;43465;50.728;4.160;2022-11-20T09:57:46;17.15;;;9.57;;
57635;SDS011;43465;50.728;4.160;2022-11-20T10:00:16;16.75;;;9.35;;
57635;SDS011;43465;50.728;4.160;2022-11-20T10:02:50;21.23;;;9.43;;
57635;SDS011;43465;50.728;4.160;2022-11-20T10:05:38;17.15;;;8.02;;
57635;SDS011;43465;50.728;4.160;2022-11-20T10:08:21;18.35;;;8.32;;
57635;SDS011;43465;50.728;4.160;2022-11-20T10:30:15;21.92;;;9.05;;
57635;SDS011;43465;50.728;4.160;2022-11-20T10:32:47;22.35;;;9.93;;
57635;SDS011;43465;50.728;4.160;2022-11-20T10:35:29;19.63;;;8.30;;
57635;SDS011;43465;50.728;4.160;2022-11-20T10:38:06;19.33;;;8.32;;
57635;SDS011;43465;50.728;4.160;2022-11-20T10:40:46;17.17;;;8.52;;
57635;SDS011;43465;50.728;4.160;2022-11-20T10:43:21;19.85;;;8.77;;
57635;SDS011;43465;50.728;4.160;2022-11-20T10:46:03;18.35;;;8.30;;
57635;SDS011;43465;50.728;4.160;2022-11-20T10:48:33;22.60;;;9.13;;
57635;SDS011;43465;50.728;4.160;2022-11-20T10:53:47;22.60;;;10.75;;
57635;SDS011;43465;50.728;4.160;2022-11-20T10:56:36;23.02;;;10.88;;
57635;SDS011;43465;50.728;4.160;2022-11-20T11:02:18;19.38;;;9.93;;
57635;SDS011;43465;50.728;4.160;2022-11-20T11:04:58;20.25;;;8.60;;
57635;SDS011;43465;50.728;4.160;2022-11-20T11:07:35;13.48;;;7.38;;
57635;SDS011;43465;50.728;4.160;2022-11-20T11:10:14;13.82;;;7.38;;
57635;SDS011;43465;50.728;4.160;2022-11-20T11:12:47;15.23;;;8.15;;
57635;SDS011;43465;50.728;4.160;2022-11-20T11:18:05;16.20;;;7.05;;
57635;SDS011;43465;50.728;4.160;2022-11-20T11:20:33;16.42;;;7.32;;
57635;SDS011;43465;50.728;4.160;2022-11-20T11:22:59;14.85;;;7.60;;
57635;SDS011;43465;50.728;4.160;2022-11-20T11:25:26;14.40;;;7.35;;
57635;SDS011;43465;50.728;4.160;2022-11-20T11:27:53;15.98;;;8.15;;
57635;SDS011;43465;50.728;4.160;2022-11-20T11:30:23;13.10;;;7.72;;
57635;SDS011;43465;50.728;4.160;2022-11-20T11:32:50;19.10;;;8.85;;
57635;SDS011;43465;50.728;4.160;2022-11-20T11:35:28;15.02;;;7.75;;
57635;SDS011;43465;50.728;4.160;2022-11-20T11:38:07;15.70;;;7.05;;
57635;SDS011;43465;50.728;4.160;2022-11-20T11:40:39;14.80;;;6.88;;
57635;SDS011;43465;50.728;4.160;2022-11-20T11:43:06;14.55;;;6.72;;
57635;SDS011;43465;50.728;4.160;2022-11-20T11:46:02;10.15;;;4.93;;
57635;SDS011;43465;50.728;4.160;2022-11-20T11:48:29;10.50;;;5.28;;
57635;SDS011;43465;50.728;4.160;2022-11-20T11:50:55;10.48;;;4.80;;
57635;SDS011;43465;50.728;4.160;2022-11-20T11:53:21;13.55;;;5.18;;
57635;SDS011;43465;50.728;4.160;2022-11-20T11:56:08;10.32;;;4.63;;
57635;SDS011;43465;50.728;4.160;2022-11-20T11:58:46;12.40;;;4.70;;
57635;SDS011;43465;50.728;4.160;2022-11-20T12:04:35;12.30;;;5.03;;
57635;SDS011;43465;50.728;4.160;2022-11-20T12:06:36;11.35;;;4.65;;
57635;SDS011;43465;50.728;4.160;2022-11-20T12:09:08;17.88;;;5.38;;
57635;SDS011;43465;50.728;4.160;2022-11-20T12:14:32;15.55;;;4.72;;
57635;SDS011;43465;50.728;4.160;2022-11-20T12:17:02;7.57;;;4.28;;
57635;SDS011;43465;50.728;4.160;2022-11-20T12:19:32;12.48;;;4.60;;
57635;SDS011;43465;50.728;4.160;2022-11-20T12:22:02;10.50;;;3.78;;
57635;SDS011;43465;50.728;4.160;2022-11-20T12:29:53;7.97;;;3.67;;
57635;SDS011;43465;50.728;4.160;2022-11-20T12:36:01;11.20;;;4.68;;
57635;SDS011;43465;50.728;4.160;2022-11-20T12:53:04;7.90;;;4.43;;
57635;SDS011;43465;50.728;4.160;2022-11-20T12:58:25;8.30;;;4.70;;
57635;SDS011;43465;50.728;4.160;2022-11-20T13:03:56;7.45;;;5.07;;
57635;SDS011;43465;50.728;4.160;2022-11-20T13:06:30;6.07;;;5.00;;
57635;SDS011;43465;50.728;4.160;2022-11-20T13:08:56;7.22;;;5.10;;
57635;SDS011;43465;50.728;4.160;2022-11-20T13:19:37;12.20;;;5.68;;
57635;SDS011;43465;50.728;4.160;2022-11-20T13:22:03;7.30;;;5.40;;
57635;SDS011;43465;50.728;4.160;2022-11-20T13:24:30;9.32;;;5.28;;
57635;SDS011;43465;50.728;4.160;2022-11-20T13:29:25;6.93;;;5.10;;
57635;SDS011;43465;50.728;4.160;2022-11-20T13:32:00;9.07;;;5.30;;
57635;SDS011;43465;50.728;4.160;2022-11-20T13:34:31;10.02;;;5.05;;
57635;SDS011;43465;50.728;4.160;2022-11-20T13:36:58;8.23;;;5.50;;
57635;SDS011;43465;50.728;4.160;2022-11-20T13:39:26;12.57;;;5.75;;
57635;SDS011;43465;50.728;4.160;2022-11-20T13:41:55;6.18;;;4.90;;
57635;SDS011;43465;50.728;4.160;2022-11-20T13:45:08;8.98;;;5.20;;
57635;SDS011;43465;50.728;4.160;2022-11-20T13:47:23;8.18;;;5.60;;
57635;SDS011;43465;50.728;4.160;2022-11-20T13:49:51;6.25;;;5.15;;
57635;SDS011;43465;50.728;4.160;2022-11-20T14:00:56;7.32;;;4.20;;
57635;SDS011;43465;50.728;4.160;2022-11-20T14:03:43;6.50;;;4.70;;
57635;SDS011;43465;50.728;4.160;2022-11-20T14:06:28;7.07;;;4.40;;
57635;SDS011;43465;50.728;4.160;2022-11-20T14:08:56;5.88;;;3.75;;
57635;SDS011;43465;50.728;4.160;2022-11-20T14:11:23;5.90;;;3.78;;
57635;SDS011;43465;50.728;4.160;2022-11-20T14:13:58;7.90;;;4.07;;
57635;SDS011;43465;50.728;4.160;2022-11-20T14:16:27;5.20;;;2.95;;
57635;SDS011;43465;50.728;4.160;2022-11-20T14:18:55;4.60;;;2.50;;
57635;SDS011;43465;50.728;4.160;2022-11-20T14:21:31;2.38;;;2.10;;
57635;SDS011;43465;50.728;4.160;2022-11-20T14:24:03;2.45;;;2.25;;
57635;SDS011;43465;50.728;4.160;2022-11-20T14:26:30;3.78;;;2.30;;
57635;SDS011;43465;50.728;4.160;2022-11-20T14:28:56;5.72;;;1.95;;
57635;SDS011;43465;50.728;4.160;2022-11-20T14:31:25;2.67;;;2.47;;
57635;SDS011;43465;50.728;4.160;2022-11-20T14:33:53;2.55;;;2.20;;
57635;SDS011;43465;50.728;4.160;2022-11-20T14:36:20;2.65;;;2.42;;
57635;SDS011;43465;50.728;4.160;2022-11-20T14:38:48;3.20;;;2.30;;
57635;SDS011;43465;50.728;4.160;2022-11-20T14:41:21;3.45;;;2.53;;
57635;SDS011;43465;50.728;4.160;2022-11-20T14:43:57;2.92;;;2.72;;
57635;SDS011;43465;50.728;4.160;2022-11-20T14:46:24;4.15;;;2.60;;
57635;SDS011;43465;50.728;4.160;2022-11-20T14:48:51;4.38;;;2.70;;
57635;SDS011;43465;50.728;4.160;2022-11-20T14:56:59;5.13;;;3.08;;
57635;SDS011;43465;50.728;4.160;2022-11-20T14:59:30;5.18;;;3.13;;
57635;SDS011;43465;50.728;4.160;2022-11-20T15:02:01;3.25;;;2.70;;
57635;SDS011;43465;50.728;4.160;2022-11-20T15:04:28;5.43;;;3.10;;
57635;SDS011;43465;50.728;4.160;2022-11-20T15:06:55;6.30;;;3.22;;
57635;SDS011;43465;50.728;4.160;2022-11-20T15:09:22;5.80;;;2.95;;
57635;SDS011;43465;50.728;4.160;2022-11-20T15:11:52;4.50;;;2.80;;
57635;SDS011;43465;50.728;4.160;2022-11-20T15:14:18;5.63;;;2.72;;
57635;SDS011;43465;50.728;4.160;2022-11-20T15:16:44;5.65;;;2.95;;
57635;SDS011;43465;50.728;4.160;2022-11-20T15:19:13;8.18;;;3.63;;
57635;SDS011;43465;50.728;4.160;2022-11-20T15:21:43;5.75;;;3.00;;
57635;SDS011;43465;50.728;4.160;2022-11-20T15:24:09;5.55;;;3.15;;
57635;SDS011;43465;50.728;4.160;2022-11-20T15:26:35;8.00;;;3.63;;
57635;SDS011;43465;50.728;4.160;2022-11-20T15:29:02;7.63;;;3.28;;
57635;SDS011;43465;50.728;4.160;2022-11-20T15:31:29;7.50;;;3.05;;
57635;SDS011;43465;50.728;4.160;2022-11-20T15:33:54;5.75;;;3.60;;
57635;SDS011;43465;50.728;4.160;2022-11-20T15:36:20;5.90;;;3.30;;
57635;SDS011;43465;50.728;4.160;2022-11-20T15:38:46;8.90;;;4.35;;
57635;SDS011;43465;50.728;4.160;2022-11-20T15:41:11;9.75;;;3.38;;
57635;SDS011;43465;50.728;4.160;2022-11-20T15:43:37;10.68;;;3.60;;
57635;SDS011;43465;50.728;4.160;2022-11-20T15:46:05;7.97;;;3.30;;
57635;SDS011;43465;50.728;4.160;2022-11-20T15:48:44;7.43;;;3.30;;
57635;SDS011;43465;50.728;4.160;2022-11-20T15:53:40;7.57;;;3.42;;
57635;SDS011;43465;50.728;4.160;2022-11-20T15:56:15;10.05;;;3.65;;
57635;SDS011;43465;50.728;4.160;2022-11-20T15:58:41;9.02;;;3.75;;
57635;SDS011;43465;50.728;4.160;2022-11-20T16:01:10;15.50;;;4.22;;
57635;SDS011;43465;50.728;4.160;2022-11-20T16:03:37;13.45;;;3.60;;
57635;SDS011;43465;50.728;4.160;2022-11-20T16:06:03;11.00;;;3.63;;
57635;SDS011;43465;50.728;4.160;2022-11-20T16:08:28;10.18;;;3.90;;
57635;SDS011;43465;50.728;4.160;2022-11-20T16:10:54;9.68;;;3.55;;
57635;SDS011;43465;50.728;4.160;2022-11-20T16:13:20;16.40;;;4.18;;
57635;SDS011;43465;50.728;4.160;2022-11-20T16:16:05;12.93;;;3.67;;
57635;SDS011;43465;50.728;4.160;2022-11-20T16:18:34;12.32;;;3.60;;